• Join FlightAware (Why Join?)
  • Login
  • US Flag 
02:32AM EST


 

Airport Tracker/Info


-or-


 

Live Flight TrackerFlight Track Log ✈ N302WC ✈ 22-May-2013 ✈ KAUS - KLFT

Flight Track Log - Related Links

Times and Time Zones

All times are in EDT time to prevent confusion due to time zone crossing. See the N302WC flight status page for this flight to view local times or setup timezone preferences in your user account.

Time Position Orientation Groundspeed Altitude Reporting Facility
EDT Latitude Longitude Course Direction KTS MPH feet Rate Location/Type
08:14AM 30.1467 -97.5819 101° East 177 204 5,500  Level Houston Center
08:15AM 30.1750 -97.5156 64° Northeast 217 250 7,500 2,160 Climbing Houston Center
08:16AM 30.2069 -97.4356 65° Northeast 260 299 9,900 2,340 Climbing Houston Center
08:17AM 30.2425 -97.3519 64° Northeast 283 326 12,300 2,040 Climbing Houston Center
08:18AM 30.3500 -97.1566 90° East  Level FlightAware Approximate
08:18AM 30.2786 -97.2614 65° Northeast 302 348 14,200  Level Houston Center
08:19AM 30.3477 -97.0530 101° East  Level FlightAware Approximate
08:19AM 30.3192 -97.1633 64° Northeast 330 380 15,600  Level Houston Center
08:20AM 30.3275 -97.0492 85° East 355 409 17,700 1,980 Climbing Houston Center
08:21AM 30.3192 -96.9331 95° East 359 413 19,700 1,800 Climbing Houston Center
08:22AM 30.3181 -96.8161 91° East 360 414 21,500 1,620 Climbing Houston Center
08:23AM 30.3103 -96.6750 94° East 374 430 23,100 1,500 Climbing Houston Center
08:24AM 30.3083 -96.5503 91° East 383 441 24,600 1,320 Climbing Houston Center
08:25AM 30.3022 -96.4217 93° East 394 453 25,900 1,260 Climbing Houston Center
08:26AM 30.2983 -96.2922 92° East 398 458 27,200 1,380 Climbing Houston Center
08:27AM 30.2931 -96.1606 93° East 406 467 28,800 1,500 Climbing Houston Center
08:28AM 30.2872 -96.0272 93° East 399 459 30,300 1,200 Climbing Houston Center
08:29AM 30.2836 -95.9167 92° East 399 459 31,300 1,140 Climbing Houston Center
08:30AM 30.2775 -95.7597 93° East 406 467 32,700 1,260 Climbing Houston Center
08:31AM 30.2878 -95.6256 85° East 415 478 34,000 1,080 Climbing Houston Center
08:32AM 30.3014 -95.4939 83° East 414 476 35,000 480 Climbing Houston Center
08:33AM 30.3150 -95.3539 84° East 433 498 35,000  Level Houston Center
08:34AM 30.3300 -95.2069 83° East 454 522 35,000  Level Houston Center
08:35AM 30.3450 -95.0564 83° East 468 539 35,000  Level Houston Center
08:36AM 30.3628 -94.9058 82° East 471 542 35,000  Level Houston Center
08:37AM 30.3753 -94.7556 84° East 469 540 35,000  Level Houston Center
08:38AM 30.3847 -94.6053 86° East 467 537 35,000  Level Houston Center
08:39AM 30.3947 -94.4378 86° East 468 539 35,000  Level Houston Center
08:40AM 30.4036 -94.2883 86° East 467 537 35,000  Level Houston Center
08:41AM 30.4100 -94.1425 87° East 458 527 35,000  Level Houston Center
08:42AM 30.4147 -93.9978 88° East 452 520 35,000 -360 Level Houston Center
08:43AM 30.4147 -93.8236 90° East 452 520 34,300 -1,080 Descending Houston Center
08:44AM 30.4164 -93.6783 89° East 450 518 32,800 -1,560 Descending Houston Center
08:45AM 30.4175 -93.5364 89° East 445 512 31,200 -1,920 Descending Houston Center
08:47AM 30.4247 -93.3931 87° East 420 483 28,900 -2,160 Descending Houston Center
08:48AM 30.4269 -93.2597 89° East 415 478 26,800 -2,040 Descending Houston Center
08:49AM 30.4278 -93.1300 90° East 406 467 24,800 -2,100 Descending Houston Center
08:50AM 30.4308 -93.0061 88° East 394 453 22,600 -2,280 Descending Houston Center
08:51AM 30.4339 -92.8872 88° East 376 433 20,200 -2,400 Descending Houston Center
08:52AM 30.4347 -92.7722 89° East 363 418 17,700 -2,460 Descending Houston Center
08:53AM 30.4011 -92.6594 109° East 368 423 15,200 -2,520 Descending Houston Center
08:54AM 30.3628 -92.5250 108° East 368 423 12,500 -2,520 Descending Houston Center
08:55AM 30.3325 -92.4231 109° East 345 397 10,100 -2,520 Descending Houston Center
08:56AM 30.3267 -92.3200 94° East 311 358 7,400 -2,760 Descending Houston Center
08:57AM 30.3372 -92.2219 83° East 309 356 4,400 -2,160 Descending Houston Center
08:58AM 30.3358 -92.1369 91° East 274 315 3,000 -1,260 Descending Houston Center
08:59AM 30.3100 -92.1064 134° Southeast 159 183 1,800 -600 Descending Houston Center
09:00AM 30.2878 -92.0847 140° Southeast 113 130 1,800  Level Houston Center
09:01AM 30.2714 -92.0675 138° Southeast 102 117 1,800  Level Houston Center
09:03AM 30.2000 -91.9833 107° East  Level FlightAware Approximate
09:10AM 30.2050 -91.9877 107° East  Level Estimated
09:11AM 30.2000 -91.9833 107° East  Level FlightAware Approximate
09:12AM 30.2050 -91.9877 107° East  Level Estimated
09:13AM 30.2000 -91.9833 107° East  Level FlightAware Approximate